Time;durP1;ratioP1;P1;durP2;ratioP2;P2;SDS_P1;SDS_P2;PMS_P1;PMS_P2;Temp;Humidity;BMP_temperature;BMP_pressure;BME280_temperature;BME280_humidity;BME280_pressure;Samples;Min_cycle;Max_cycle;Signal;HPM_P1;HPM_P2
2022/04/30 00:01:31;;;;;;;15.75;4.55;;;22.40;39.90;;;;;;4933534;29;20031;-76
2022/04/30 00:03:57;;;;;;;12.05;5.07;;;22.50;40.20;;;;;;4939041;29;20111;-76
2022/04/30 00:06:22;;;;;;;20.88;5.90;;;22.50;40.60;;;;;;4933003;29;20498;-76
2022/04/30 00:08:48;;;;;;;14.82;5.22;;;22.60;40.60;;;;;;4934385;29;20040;-76
2022/04/30 00:11:14;;;;;;;16.35;5.70;;;22.70;40.60;;;;;;4934530;29;20110;-77
2022/04/30 00:13:40;;;;;;;16.40;6.05;;;22.70;40.80;;;;;;4932803;29;20114;-76
2022/04/30 00:16:06;;;;;;;12.05;5.00;;;22.70;41.10;;;;;;4933123;29;20131;-77
2022/04/30 00:18:31;;;;;;;16.08;4.95;;;22.80;41.30;;;;;;4949253;28;20032;-78
2022/04/30 00:20:58;;;;;;;14.77;5.68;;;22.80;41.50;;;;;;4917130;29;20043;-77
2022/04/30 00:23:26;;;;;;;14.27;4.68;;;22.80;41.70;;;;;;4921625;29;20118;-77
2022/04/30 00:25:56;;;;;;;13.93;4.55;;;22.80;42.00;;;;;;4925342;29;20032;-78
2022/04/30 00:28:25;;;;;;;18.17;5.72;;;22.80;42.00;;;;;;4928946;29;20028;-78
2022/04/30 00:30:50;;;;;;;16.13;5.63;;;22.90;42.40;;;;;;4941427;29;20028;-77
2022/04/30 00:33:16;;;;;;;17.35;6.07;;;22.90;42.70;;;;;;4919759;29;20042;-76
2022/04/30 00:35:43;;;;;;;19.58;6.93;;;22.90;42.90;;;;;;4953588;29;20059;-77
2022/04/30 00:38:09;;;;;;;20.73;6.80;;;22.90;43.10;;;;;;4941882;29;20024;-77
2022/04/30 00:40:36;;;;;;;20.73;6.00;;;22.90;43.30;;;;;;4915190;29;20032;-77
2022/04/30 00:43:11;;;;;;;20.35;6.70;;;23.00;43.50;;;;;;4929895;29;20047;-77
2022/04/30 00:45:46;;;;;;;19.40;6.32;;;23.00;43.70;;;;;;4928286;29;20100;-75
2022/04/30 00:48:12;;;;;;;18.90;6.72;;;23.00;43.90;;;;;;4916384;29;20063;-75
2022/04/30 00:50:38;;;;;;;17.90;6.32;;;23.00;44.10;;;;;;4929930;29;20070;-75
2022/04/30 00:53:05;;;;;;;21.27;7.07;;;23.00;44.80;;;;;;4916628;29;20453;-76
2022/04/30 00:55:33;;;;;;;19.60;6.32;;;23.00;44.70;;;;;;4933104;29;20091;-75
2022/04/30 00:58:02;;;;;;;15.77;6.15;;;23.00;44.80;;;;;;4932159;29;20036;-75
2022/04/30 01:00:29;;;;;;;19.92;6.45;;;23.00;44.90;;;;;;4931959;29;20036;-75
2022/04/30 01:03:04;;;;;;;26.10;7.70;;;22.90;44.90;;;;;;4927574;29;20115;-75
2022/04/30 01:05:44;;;;;;;30.30;9.05;;;22.90;45.10;;;;;;4918229;29;20036;-75
2022/04/30 01:08:10;;;;;;;32.92;10.48;;;22.90;45.50;;;;;;4933604;29;20031;-75
2022/04/30 01:10:36;;;;;;;35.33;10.98;;;22.90;45.80;;;;;;4931973;29;20023;-75
2022/04/30 01:13:03;;;;;;;38.65;11.73;;;23.00;46.20;;;;;;4932114;29;20083;-76
2022/04/30 01:15:29;;;;;;;33.05;11.80;;;23.00;46.50;;;;;;4929854;29;20027;-75
2022/04/30 01:17:56;;;;;;;33.35;11.32;;;23.00;46.90;;;;;;4933567;29;20027;-75
2022/04/30 01:20:22;;;;;;;33.13;10.68;;;23.00;47.10;;;;;;4934200;29;20384;-75
2022/04/30 01:23:01;;;;;;;37.53;10.38;;;23.00;47.10;;;;;;4932613;29;20038;-75
2022/04/30 01:25:27;;;;;;;29.42;10.18;;;23.00;47.30;;;;;;4931064;29;20024;-75
2022/04/30 01:27:53;;;;;;;32.42;10.02;;;23.00;47.50;;;;;;4930765;29;20036;-75
2022/04/30 01:30:19;;;;;;;24.25;9.23;;;23.00;47.60;;;;;;4931658;29;20453;-75
2022/04/30 01:38:15;;;;;;;29.38;9.57;;;23.00;48.00;;;;;;4933592;29;20032;-75
2022/04/30 01:40:41;;;;;;;21.75;8.50;;;22.90;48.60;;;;;;4931481;29;20500;-76
2022/04/30 01:43:07;;;;;;;26.95;8.45;;;22.90;48.10;;;;;;4933147;29;20051;-76
2022/04/30 01:45:34;;;;;;;28.88;9.15;;;22.90;48.10;;;;;;4930567;29;20064;-75
2022/04/30 01:48:03;;;;;;;24.33;9.02;;;22.90;48.20;;;;;;4932660;29;20464;-76
2022/04/30 01:50:28;;;;;;;25.77;8.15;;;22.90;48.30;;;;;;4926706;29;20516;-76
2022/04/30 01:52:54;;;;;;;24.33;8.25;;;22.90;48.30;;;;;;4930301;29;20031;-76
2022/04/30 01:55:20;;;;;;;21.58;7.85;;;22.90;48.40;;;;;;4933629;29;20027;-76
2022/04/30 01:57:50;;;;;;;22.77;7.40;;;22.90;48.20;;;;;;4931393;29;20126;-76
2022/04/30 02:00:20;;;;;;;23.35;7.47;;;22.90;48.30;;;;;;4932761;29;20119;-77
2022/04/30 02:02:48;;;;;;;19.67;7.00;;;22.90;48.20;;;;;;4931676;29;20082;-76
2022/04/30 02:05:14;;;;;;;17.15;6.53;;;22.90;48.20;;;;;;4935217;29;20111;-76
2022/04/30 02:07:52;;;;;;;19.88;7.13;;;22.90;48.10;;;;;;4929286;29;20027;-76
2022/04/30 02:10:20;;;;;;;16.08;5.72;;;22.80;48.10;;;;;;4933369;29;20119;-76
2022/04/30 02:12:47;;;;;;;20.50;6.45;;;22.90;48.10;;;;;;4933887;29;20449;-76
2022/04/30 02:15:14;;;;;;;22.50;7.03;;;22.90;47.90;;;;;;4935348;29;20449;-76
2022/04/30 02:17:41;;;;;;;20.08;6.47;;;22.90;47.70;;;;;;4934543;29;20028;-76
2022/04/30 02:20:27;;;;;;;17.42;7.38;;;22.90;47.90;;;;;;4936401;29;20113;-76
2022/04/30 02:22:59;;;;;;;19.95;6.97;;;22.90;47.50;;;;;;4927754;29;20552;-76
2022/04/30 02:25:26;;;;;;;16.65;6.57;;;22.90;47.50;;;;;;4934510;29;20028;-76
2022/04/30 02:27:54;;;;;;;20.73;7.28;;;22.90;47.60;;;;;;4928829;29;20451;-76
2022/04/30 02:30:22;;;;;;;18.98;6.13;;;22.90;47.50;;;;;;4935052;29;20103;-76
2022/04/30 02:32:49;;;;;;;18.77;6.70;;;22.90;47.60;;;;;;4933831;29;20029;-76
2022/04/30 02:35:20;;;;;;;22.30;6.82;;;22.90;47.60;;;;;;4934841;29;20032;-76
2022/04/30 02:37:49;;;;;;;17.77;6.07;;;22.90;47.50;;;;;;4934982;29;20040;-76
2022/04/30 02:40:16;;;;;;;17.20;5.93;;;22.90;47.50;;;;;;4929151;29;20366;-76
2022/04/30 02:42:44;;;;;;;19.52;5.95;;;22.90;48.20;;;;;;4944295;28;20051;-76
2022/04/30 02:45:11;;;;;;;15.48;6.00;;;22.90;47.70;;;;;;4934656;29;20489;-76
2022/04/30 02:47:38;;;;;;;14.63;5.75;;;22.90;47.70;;;;;;4934570;29;20039;-76
2022/04/30 02:50:08;;;;;;;16.42;6.13;;;22.90;47.50;;;;;;4934630;29;20020;-76
2022/04/30 02:52:35;;;;;;;17.85;6.10;;;22.90;47.90;;;;;;4933817;29;20168;-76
2022/04/30 02:55:02;;;;;;;16.45;5.88;;;22.90;47.50;;;;;;4934072;29;20120;-76
2022/04/30 03:00:51;;;;;;;14.88;5.32;;;22.90;47.50;;;;;;4934050;29;20421;-76
2022/04/30 03:03:18;;;;;;;14.88;6.25;;;22.90;47.70;;;;;;4931183;29;20027;-76
2022/04/30 03:05:45;;;;;;;18.00;6.35;;;22.80;47.60;;;;;;4916453;29;20735;-76
2022/04/30 03:08:13;;;;;;;17.60;6.07;;;22.90;47.50;;;;;;4948330;29;20086;-76
2022/04/30 03:10:40;;;;;;;16.98;5.90;;;22.80;47.50;;;;;;4933658;29;20039;-76
2022/04/30 03:13:06;;;;;;;13.57;5.70;;;22.90;47.50;;;;;;4928106;29;20309;-76
2022/04/30 03:15:37;;;;;;;15.93;5.63;;;22.80;47.40;;;;;;4934073;29;20034;-76
2022/04/30 03:21:49;;;;;;;17.02;6.22;;;22.90;47.40;;;;;;4932272;29;20076;-77
2022/04/30 03:23:43;;;;;;;16.05;5.97;;;22.90;47.40;;;;;;4934144;29;20050;-77
2022/04/30 03:26:11;;;;;;;16.42;6.35;;;22.90;47.50;;;;;;4929945;29;20032;-77
2022/04/30 03:28:40;;;;;;;13.85;5.32;;;22.90;47.30;;;;;;4933761;29;20034;-77
2022/04/30 03:31:07;;;;;;;16.35;5.63;;;22.90;47.30;;;;;;4928559;29;20024;-76
2022/04/30 03:33:33;;;;;;;15.43;5.78;;;22.90;47.60;;;;;;4932499;29;20024;-76
2022/04/30 03:36:00;;;;;;;15.80;5.70;;;22.90;47.40;;;;;;4935041;29;20477;-76
2022/04/30 03:38:25;;;;;;;15.30;5.88;;;22.90;47.40;;;;;;4935038;29;20051;-76
2022/04/30 03:40:51;;;;;;;13.15;5.22;;;22.90;47.40;;;;;;4930007;29;20512;-76
2022/04/30 03:43:18;;;;;;;13.20;5.03;;;22.80;47.40;;;;;;4930369;29;20058;-76
2022/04/30 03:45:44;;;;;;;14.50;5.10;;;22.90;47.40;;;;;;4935275;29;20063;-76
2022/04/30 03:48:10;;;;;;;12.75;5.75;;;22.90;47.40;;;;;;4934768;29;20034;-76
2022/04/30 03:50:35;;;;;;;12.23;5.10;;;22.90;47.50;;;;;;4933355;29;20099;-76
2022/04/30 03:53:01;;;;;;;12.13;5.35;;;22.90;47.50;;;;;;4929021;29;20470;-76
2022/04/30 03:55:28;;;;;;;12.85;5.22;;;22.90;47.50;;;;;;4933533;29;20032;-77
2022/04/30 03:57:54;;;;;;;15.60;5.32;;;22.90;47.50;;;;;;4932660;29;20031;-77
2022/04/30 04:00:20;;;;;;;13.52;4.75;;;22.80;47.40;;;;;;4934610;29;20031;-77
2022/04/30 04:02:46;;;;;;;11.45;4.70;;;22.80;47.40;;;;;;4924356;29;20522;-77
2022/04/30 04:05:12;;;;;;;13.25;4.97;;;22.90;47.50;;;;;;4932461;29;20285;-76
2022/04/30 04:07:39;;;;;;;10.98;4.80;;;22.90;47.50;;;;;;4934362;29;20043;-77
2022/04/30 04:10:06;;;;;;;11.48;4.90;;;22.90;47.50;;;;;;4933391;29;20072;-77
2022/04/30 04:12:32;;;;;;;11.25;4.60;;;22.90;47.50;;;;;;4906801;29;20040;-77
2022/04/30 04:17:42;;;;;;;12.75;5.00;;;22.90;47.50;;;;;;4930485;29;20506;-77
2022/04/30 04:20:10;;;;;;;19.42;6.43;;;22.90;47.50;;;;;;4934364;29;20106;-77
2022/04/30 04:22:36;;;;;;;13.02;5.40;;;22.90;48.10;;;;;;4926865;29;20042;-78
2022/04/30 04:27:48;;;;;;;12.23;4.97;;;22.90;47.50;;;;;;4934355;29;20244;-77
2022/04/30 04:30:13;;;;;;;15.10;5.22;;;22.90;47.50;;;;;;4931062;29;20070;-77
2022/04/30 04:32:39;;;;;;;14.10;4.78;;;22.90;47.40;;;;;;4921126;29;20123;-76
2022/04/30 04:35:05;;;;;;;10.48;4.53;;;22.90;47.50;;;;;;4932575;29;20024;-77
2022/04/30 04:37:31;;;;;;;14.02;4.60;;;22.90;48.00;;;;;;4948463;29;20034;-77
2022/04/30 04:39:57;;;;;;;10.55;4.78;;;22.90;47.50;;;;;;4951949;29;20051;-77
2022/04/30 04:42:23;;;;;;;13.35;4.95;;;22.90;47.60;;;;;;4920973;29;20114;-77
2022/04/30 04:44:49;;;;;;;10.88;4.60;;;22.90;47.60;;;;;;4931763;29;20479;-77
2022/04/30 04:47:15;;;;;;;11.48;4.75;;;22.90;47.50;;;;;;4916096;29;20039;-77
2022/04/30 04:49:42;;;;;;;12.48;4.43;;;22.90;47.50;;;;;;4933881;29;20028;-78
2022/04/30 04:52:10;;;;;;;11.40;4.25;;;22.90;47.50;;;;;;4928529;29;20027;-78
2022/04/30 04:54:36;;;;;;;12.40;4.72;;;22.90;47.80;;;;;;4916900;29;20031;-78
2022/04/30 04:57:02;;;;;;;9.00;4.28;;;22.90;47.50;;;;;;4932864;29;20485;-78
2022/04/30 04:59:27;;;;;;;12.60;4.38;;;22.90;47.60;;;;;;4926862;29;20031;-78
2022/04/30 05:01:53;;;;;;;10.32;4.93;;;22.80;47.50;;;;;;4931761;29;20032;-78
2022/04/30 05:04:20;;;;;;;11.38;4.47;;;22.90;47.60;;;;;;4916832;29;20083;-78
2022/04/30 05:06:48;;;;;;;10.23;4.30;;;22.90;47.50;;;;;;4932695;29;20107;-78
2022/04/30 05:09:14;;;;;;;16.00;5.22;;;22.90;47.50;;;;;;4923464;29;20429;-78
2022/04/30 05:11:40;;;;;;;11.68;4.63;;;22.90;47.60;;;;;;4926974;29;20110;-78
2022/04/30 05:14:06;;;;;;;10.48;4.47;;;22.80;47.70;;;;;;4933673;29;20039;-78
2022/04/30 05:16:32;;;;;;;12.50;4.25;;;22.80;47.90;;;;;;4917655;29;20038;-79
2022/04/30 05:18:58;;;;;;;9.65;4.32;;;22.80;47.70;;;;;;4933770;29;20036;-77
2022/04/30 05:21:24;;;;;;;10.45;4.35;;;22.90;47.70;;;;;;4927396;29;20029;-77
2022/04/30 05:23:50;;;;;;;9.75;4.13;;;22.90;47.60;;;;;;4932537;29;20074;-78
2022/04/30 05:26:16;;;;;;;12.02;4.32;;;22.90;47.80;;;;;;4929198;29;20092;-79
2022/04/30 05:28:41;;;;;;;10.45;4.38;;;22.90;47.60;;;;;;4926854;29;20186;-79
2022/04/30 05:31:07;;;;;;;11.98;4.72;;;22.90;47.60;;;;;;4929524;29;20047;-79
2022/04/30 05:33:36;;;;;;;11.75;4.75;;;22.90;47.50;;;;;;4933282;29;20132;-78
2022/04/30 05:36:03;;;;;;;10.23;4.53;;;22.90;47.60;;;;;;4936255;29;20449;-77
2022/04/30 05:38:28;;;;;;;10.30;4.20;;;22.90;48.10;;;;;;4934216;29;20024;-77
2022/04/30 05:40:54;;;;;;;11.10;4.95;;;22.90;47.50;;;;;;4913010;29;20614;-77
2022/04/30 05:43:20;;;;;;;10.90;4.13;;;22.90;47.50;;;;;;4930177;29;20027;-78
2022/04/30 05:45:46;;;;;;;11.65;4.75;;;22.90;47.50;;;;;;4935807;29;20110;-78
2022/04/30 05:48:11;;;;;;;8.82;4.03;;;22.90;47.50;;;;;;4936027;29;20027;-77
2022/04/30 05:50:38;;;;;;;10.13;4.38;;;22.90;47.50;;;;;;4928769;29;20151;-76
2022/04/30 05:53:05;;;;;;;8.63;4.20;;;22.90;47.50;;;;;;4917742;29;20491;-77
2022/04/30 05:55:31;;;;;;;10.63;4.25;;;22.90;47.50;;;;;;4937039;29;20024;-77
2022/04/30 05:57:57;;;;;;;11.50;4.70;;;22.90;47.50;;;;;;4937376;29;20056;-78
2022/04/30 06:00:23;;;;;;;11.60;5.07;;;22.90;47.60;;;;;;4937001;29;20039;-78
2022/04/30 06:02:49;;;;;;;8.18;3.90;;;22.90;47.60;;;;;;4933698;29;20063;-78
2022/04/30 06:05:16;;;;;;;11.38;4.35;;;22.90;47.60;;;;;;4935616;29;20032;-78
2022/04/30 06:07:42;;;;;;;10.50;4.10;;;22.90;47.60;;;;;;4933211;29;20032;-78
2022/04/30 06:10:08;;;;;;;12.60;4.28;;;22.90;47.60;;;;;;4934732;29;20030;-78
2022/04/30 06:12:36;;;;;;;9.27;4.10;;;22.90;47.60;;;;;;4931347;29;20340;-78
2022/04/30 06:15:03;;;;;;;9.98;4.10;;;22.90;47.90;;;;;;4931426;29;20125;-78
2022/04/30 06:17:29;;;;;;;9.23;4.07;;;22.90;47.60;;;;;;4929843;29;20037;-78
2022/04/30 06:19:54;;;;;;;11.18;4.57;;;22.90;47.70;;;;;;4917008;29;20035;-77
2022/04/30 06:22:20;;;;;;;8.68;4.22;;;22.90;47.70;;;;;;4931327;29;20032;-77
2022/04/30 06:24:46;;;;;;;7.60;3.70;;;22.90;47.70;;;;;;4936121;29;20098;-77
2022/04/30 06:27:11;;;;;;;8.40;3.95;;;22.90;47.60;;;;;;4930767;29;20042;-78
2022/04/30 06:29:38;;;;;;;9.50;3.80;;;22.90;47.60;;;;;;4934818;29;20032;-77
2022/04/30 06:32:05;;;;;;;9.68;4.10;;;22.90;48.30;;;;;;4907983;29;20132;-77
2022/04/30 06:34:31;;;;;;;9.40;4.13;;;23.00;47.90;;;;;;4916203;29;20517;-77
2022/04/30 06:36:56;;;;;;;9.70;4.60;;;23.00;47.80;;;;;;4936106;29;20098;-77
2022/04/30 06:39:22;;;;;;;10.57;4.57;;;23.00;48.00;;;;;;4934006;29;20074;-77
2022/04/30 06:41:48;;;;;;;7.40;3.65;;;23.00;47.70;;;;;;4933873;29;20040;-77
2022/04/30 06:44:13;;;;;;;8.38;3.88;;;23.00;47.90;;;;;;4913355;29;20493;-77
2022/04/30 06:46:39;;;;;;;8.52;4.05;;;23.00;48.00;;;;;;4918014;29;20031;-77
2022/04/30 06:49:05;;;;;;;7.53;4.10;;;23.00;47.90;;;;;;4929328;29;20103;-77
2022/04/30 06:51:30;;;;;;;9.57;4.60;;;23.00;48.00;;;;;;4935818;29;20034;-77
2022/04/30 06:59:27;;;;;;;8.73;3.92;;;23.00;51.90;;;;;;4932877;29;20024;-74
2022/04/30 07:01:59;;;;;;;9.55;2.95;;;23.00;52.00;;;;;;4902830;29;20341;-74
2022/04/30 07:04:29;;;;;;;9.98;3.70;;;23.00;54.50;;;;;;4935373;29;20115;-74
2022/04/30 07:06:56;;;;;;;9.73;3.05;;;23.00;55.60;;;;;;4934345;29;20059;-75
2022/04/30 07:09:22;;;;;;;9.65;3.35;;;23.00;55.30;;;;;;4918631;29;20027;-74
2022/04/30 07:11:48;;;;;;;9.43;3.42;;;23.00;55.10;;;;;;4934438;29;20028;-75
2022/04/30 07:14:13;;;;;;;7.07;3.42;;;23.00;54.80;;;;;;4935566;29;20035;-74
2022/04/30 07:16:39;;;;;;;13.90;3.47;;;23.10;55.70;;;;;;4932620;29;20028;-74
2022/04/30 07:19:05;;;;;;;8.90;3.33;;;23.10;55.90;;;;;;4933466;29;20515;-74
2022/04/30 07:21:31;;;;;;;10.05;3.60;;;23.00;56.10;;;;;;4934368;29;20062;-75
2022/04/30 07:23:58;;;;;;;12.00;4.35;;;23.10;55.40;;;;;;4932550;29;20129;-71
2022/04/30 07:26:24;;;;;;;9.75;4.57;;;23.00;52.40;;;;;;4935186;29;20027;-70
2022/04/30 07:28:51;;;;;;;13.95;3.85;;;23.00;49.50;;;;;;4933514;29;20504;-71
2022/04/30 07:31:16;;;;;;;12.07;4.50;;;22.80;46.50;;;;;;4933889;29;20031;-71
2022/04/30 07:33:42;;;;;;;16.33;4.15;;;22.70;44.40;;;;;;4937353;29;20070;-76
2022/04/30 07:36:08;;;;;;;15.77;3.60;;;22.60;43.10;;;;;;4954262;28;20027;-76
2022/04/30 07:38:34;;;;;;;12.95;3.90;;;22.60;44.70;;;;;;4936165;29;20024;-75
2022/04/30 07:41:00;;;;;;;13.73;3.95;;;22.60;46.90;;;;;;4927022;29;20183;-75
2022/04/30 07:43:26;;;;;;;12.55;3.85;;;22.80;47.20;;;;;;4917622;29;20556;-74
2022/04/30 07:45:51;;;;;;;14.93;3.88;;;22.80;45.80;;;;;;4933748;29;20517;-74
2022/04/30 07:48:17;;;;;;;12.07;3.63;;;22.90;47.70;;;;;;4931947;29;20039;-75
2022/04/30 07:50:45;;;;;;;11.30;3.78;;;22.90;48.30;;;;;;4934570;29;20028;-76
2022/04/30 07:53:15;;;;;;;12.77;4.25;;;22.90;48.40;;;;;;4930320;29;20497;-75
2022/04/30 07:55:42;;;;;;;11.32;3.40;;;22.90;48.90;;;;;;4933527;29;20028;-74
2022/04/30 07:58:08;;;;;;;11.32;3.58;;;22.90;48.40;;;;;;4934360;29;20027;-76
2022/04/30 08:00:35;;;;;;;10.15;3.40;;;22.90;48.30;;;;;;4934748;29;20661;-76
2022/04/30 08:03:01;;;;;;;11.02;3.65;;;23.00;48.80;;;;;;4933004;29;20131;-76
2022/04/30 08:05:27;;;;;;;12.95;3.38;;;23.00;48.90;;;;;;4925737;29;20035;-74
2022/04/30 08:07:56;;;;;;;12.23;3.50;;;23.00;50.00;;;;;;4932002;29;20481;-74
2022/04/30 08:10:22;;;;;;;18.90;3.53;;;23.00;50.20;;;;;;4934256;29;20031;-74
2022/04/30 08:12:56;;;;;;;17.90;4.00;;;23.00;50.20;;;;;;4933926;29;20027;-74
2022/04/30 08:15:23;;;;;;;16.60;3.10;;;23.00;49.80;;;;;;4934543;29;20060;-74
2022/04/30 08:17:50;;;;;;;15.77;3.55;;;23.00;49.90;;;;;;4933232;29;20046;-74
2022/04/30 08:20:16;;;;;;;11.65;4.03;;;23.00;49.80;;;;;;4934300;29;20087;-74
2022/04/30 08:22:41;;;;;;;8.27;3.50;;;23.00;50.30;;;;;;4933941;29;20024;-74
2022/04/30 08:25:07;;;;;;;16.02;3.20;;;23.00;49.80;;;;;;4934102;29;20031;-74
2022/04/30 08:27:33;;;;;;;14.15;3.20;;;23.00;50.50;;;;;;4934150;29;20465;-74
2022/04/30 08:29:59;;;;;;;9.43;3.50;;;23.00;50.40;;;;;;4934234;29;20028;-74
2022/04/30 08:32:25;;;;;;;11.20;3.40;;;23.00;50.60;;;;;;4932974;29;20510;-74
2022/04/30 08:34:52;;;;;;;11.65;3.30;;;23.00;50.60;;;;;;4933940;29;20392;-74
2022/04/30 08:37:18;;;;;;;7.60;2.95;;;23.10;50.30;;;;;;4933127;29;20524;-74
2022/04/30 08:39:44;;;;;;;12.23;3.50;;;23.00;50.80;;;;;;4934038;29;20036;-74
2022/04/30 08:42:10;;;;;;;15.60;3.10;;;23.00;51.00;;;;;;4933869;29;20036;-74
2022/04/30 08:44:40;;;;;;;7.75;3.35;;;23.00;50.40;;;;;;4933745;29;20057;-73
2022/04/30 08:47:09;;;;;;;11.10;3.50;;;23.00;50.70;;;;;;4933102;29;20067;-74
2022/04/30 08:49:35;;;;;;;5.70;2.70;;;23.10;50.80;;;;;;4934042;29;20032;-74
2022/04/30 08:52:00;;;;;;;10.15;3.28;;;23.10;50.10;;;;;;4933826;29;20103;-74
2022/04/30 08:54:26;;;;;;;8.70;3.15;;;23.00;50.80;;;;;;4933584;29;20058;-73
2022/04/30 08:56:54;;;;;;;8.02;2.70;;;23.00;50.50;;;;;;4932978;29;20023;-74
2022/04/30 08:59:20;;;;;;;8.60;3.08;;;23.00;50.70;;;;;;4932608;29;20038;-74
2022/04/30 09:01:48;;;;;;;9.18;3.33;;;23.00;51.00;;;;;;4933920;29;20115;-75
2022/04/30 09:04:14;;;;;;;10.27;2.90;;;23.00;51.20;;;;;;4933528;29;20027;-74
2022/04/30 09:06:48;;;;;;;10.93;3.13;;;23.00;51.20;;;;;;4933652;29;20043;-68
2022/04/30 09:09:43;;;;;;;7.10;2.80;;;23.00;51.30;;;;;;4935552;29;20039;-68
2022/04/30 09:12:11;;;;;;;15.27;3.88;;;23.00;50.80;;;;;;4929206;29;20531;-69
2022/04/30 09:14:40;;;;;;;6.82;3.15;;;22.90;48.90;;;;;;4937289;29;20055;-69
2022/04/30 09:17:08;;;;;;;12.70;3.67;;;22.80;48.20;;;;;;4937333;29;20024;-69
2022/04/30 09:19:44;;;;;;;13.88;3.38;;;22.80;48.90;;;;;;4937619;29;20083;-69
2022/04/30 09:22:10;;;;;;;13.30;4.32;;;22.70;48.60;;;;;;4937271;29;20024;-69
2022/04/30 09:24:49;;;;;;;15.48;3.63;;;22.80;48.60;;;;;;4937057;29;20400;-69
2022/04/30 09:27:16;;;;;;;8.25;3.10;;;22.80;46.30;;;;;;4937407;29;20063;-69
2022/04/30 09:29:41;;;;;;;6.85;3.22;;;22.80;42.80;;;;;;4920398;29;20039;-69
2022/04/30 09:32:07;;;;;;;12.27;5.07;;;22.80;46.70;;;;;;4920396;29;20027;-70
2022/04/30 09:37:42;;;;;;;20.33;11.77;;;22.80;43.60;;;;;;4936189;29;20043;-69
2022/04/30 09:40:14;;;;;;;24.88;14.40;;;22.70;45.90;;;;;;4937523;29;20042;-71
2022/04/30 09:42:41;;;;;;;22.80;13.43;;;22.80;43.60;;;;;;4936933;29;20034;-72
2022/04/30 09:45:08;;;;;;;26.00;13.38;;;22.70;44.70;;;;;;4920486;29;20040;-72
2022/04/30 09:47:34;;;;;;;21.42;11.48;;;22.70;43.40;;;;;;4920061;29;20042;-72
2022/04/30 09:55:32;;;;;;;17.00;6.13;;;22.70;44.30;;;;;;4937037;29;20108;-72
2022/04/30 09:58:03;;;;;;;13.95;6.15;;;22.60;41.50;;;;;;4920248;29;20556;-72
2022/04/30 10:00:32;;;;;;;13.52;6.28;;;22.70;43.60;;;;;;4936966;29;20066;-72
2022/04/30 10:03:01;;;;;;;13.55;4.25;;;22.60;42.50;;;;;;4935140;29;20042;-73
2022/04/30 10:05:30;;;;;;;8.55;3.13;;;22.10;40.40;;;;;;4936705;29;20031;-73
2022/04/30 10:07:56;;;;;;;9.30;3.60;;;21.50;39.00;;;;;;4936794;29;20031;-72
2022/04/30 10:10:28;;;;;;;9.20;3.67;;;20.60;38.30;;;;;;4935576;29;20504;-72
2022/04/30 10:13:12;;;;;;;9.07;3.67;;;20.80;40.40;;;;;;4936430;29;20055;-71
2022/04/30 10:15:52;;;;;;;8.10;3.47;;;20.60;39.30;;;;;;4937108;29;20036;-72
2022/04/30 10:18:24;;;;;;;7.82;3.80;;;20.20;39.50;;;;;;4936552;29;20063;-72
2022/04/30 10:20:52;;;;;;;11.32;4.10;;;19.80;40.10;;;;;;4935529;29;20592;-74
2022/04/30 10:23:18;;;;;;;11.18;3.70;;;19.90;40.50;;;;;;4935986;29;20126;-74
2022/04/30 10:25:49;;;;;;;8.13;3.40;;;20.20;41.70;;;;;;4935516;29;20171;-74
2022/04/30 10:28:22;;;;;;;9.05;3.38;;;20.00;40.30;;;;;;4935128;29;20040;-74
2022/04/30 10:30:59;;;;;;;10.02;3.63;;;19.70;40.10;;;;;;4935157;29;20032;-74
2022/04/30 10:33:25;;;;;;;18.27;4.53;;;19.70;40.20;;;;;;4934929;29;20570;-72
2022/04/30 10:36:06;;;;;;;17.63;6.43;;;20.40;40.70;;;;;;4934882;29;20496;-72
2022/04/30 10:38:33;;;;;;;8.60;3.55;;;20.70;41.20;;;;;;4936044;29;20501;-72
2022/04/30 10:41:00;;;;;;;9.60;3.88;;;20.10;40.40;;;;;;4934819;29;20043;-71
2022/04/30 10:43:37;;;;;;;8.57;3.80;;;19.90;40.90;;;;;;4935820;29;20038;-72
2022/04/30 10:46:19;;;;;;;13.82;3.97;;;19.80;40.60;;;;;;4935002;29;20507;-71
2022/04/30 10:48:45;;;;;;;8.40;3.45;;;19.90;40.60;;;;;;4935641;29;20498;-72
2022/04/30 10:51:15;;;;;;;11.50;3.78;;;20.30;40.70;;;;;;4936048;29;20032;-71
2022/04/30 10:53:44;;;;;;;9.35;3.40;;;20.60;40.40;;;;;;4918751;29;20433;-71
2022/04/30 10:56:11;;;;;;;10.63;4.20;;;20.70;40.30;;;;;;4934784;29;20036;-72
2022/04/30 10:58:38;;;;;;;8.77;3.92;;;20.70;40.00;;;;;;4934702;29;20118;-72
2022/04/30 11:01:29;;;;;;;9.02;3.50;;;20.10;39.70;;;;;;4935942;29;20090;-71
2022/04/30 11:03:55;;;;;;;11.77;3.95;;;20.20;40.50;;;;;;4932361;29;20039;-71
2022/04/30 11:06:23;;;;;;;6.22;3.45;;;20.10;39.90;;;;;;4935615;29;20028;-71
2022/04/30 11:08:59;;;;;;;8.63;3.58;;;20.20;40.00;;;;;;4918632;29;20042;-71
2022/04/30 11:11:25;;;;;;;6.30;3.55;;;20.40;40.20;;;;;;4934573;29;20079;-71
2022/04/30 11:14:06;;;;;;;15.45;4.15;;;20.20;39.60;;;;;;4934953;29;20118;-71
2022/04/30 11:16:37;;;;;;;14.40;4.38;;;19.70;39.60;;;;;;4918743;29;20400;-72
2022/04/30 11:19:10;;;;;;;14.98;4.15;;;19.70;40.10;;;;;;4934552;29;20039;-71
2022/04/30 11:21:38;;;;;;;7.82;3.28;;;19.20;40.60;;;;;;4935361;29;20434;-71
2022/04/30 11:24:05;;;;;;;9.75;3.78;;;19.70;40.80;;;;;;4933653;29;20059;-70
2022/04/30 11:26:39;;;;;;;11.20;4.18;;;20.20;40.60;;;;;;4918397;29;20448;-72
2022/04/30 11:29:10;;;;;;;10.63;4.28;;;20.30;39.80;;;;;;4935106;29;20044;-71
2022/04/30 11:31:36;;;;;;;7.90;3.75;;;20.30;39.10;;;;;;4934661;29;20087;-72
2022/04/30 11:34:13;;;;;;;13.90;4.22;;;19.70;38.70;;;;;;4934878;29;20028;-72
2022/04/30 11:36:41;;;;;;;10.10;4.35;;;19.80;38.50;;;;;;4918364;29;20091;-71
2022/04/30 11:39:10;;;;;;;10.95;3.92;;;19.30;39.40;;;;;;4935066;29;20032;-71
2022/04/30 11:41:50;;;;;;;14.75;4.65;;;19.60;39.90;;;;;;4935254;29;20106;-72
2022/04/30 11:44:16;;;;;;;;;;;19.80;39.00;;;;;;4935137;29;20427;-72
2022/04/30 11:46:44;;;;;;;8.43;4.07;;;20.00;39.60;;;;;;4918326;29;20001;-71
2022/04/30 11:49:11;;;;;;;16.70;4.63;;;19.90;38.90;;;;;;4934734;29;20452;-71
2022/04/30 11:51:38;;;;;;;12.40;4.18;;;20.30;39.70;;;;;;4934814;29;20106;-72
2022/04/30 11:54:08;;;;;;;13.38;4.13;;;20.60;41.00;;;;;;4934400;29;20426;-71
2022/04/30 11:56:35;;;;;;;12.60;3.42;;;20.90;40.20;;;;;;4935170;29;20027;-71
2022/04/30 11:59:01;;;;;;;8.93;3.60;;;21.00;40.10;;;;;;4917835;29;20099;-75
2022/04/30 12:01:30;;;;;;;9.55;3.25;;;21.20;40.50;;;;;;4934057;29;20039;-76
2022/04/30 12:03:59;;;;;;;23.93;3.77;;;21.30;40.50;;;;;;4932959;29;20480;-76
2022/04/30 12:06:26;;;;;;;13.18;3.92;;;21.40;40.70;;;;;;4933433;29;20087;-75
2022/04/30 12:08:52;;;;;;;10.95;3.83;;;21.50;40.20;;;;;;4934354;29;20118;-75
2022/04/30 12:11:18;;;;;;;11.07;3.03;;;21.60;40.80;;;;;;4933387;29;20107;-74
2022/04/30 12:13:43;;;;;;;17.40;3.33;;;21.70;41.30;;;;;;4934314;29;20075;-75
2022/04/30 12:16:09;;;;;;;14.02;2.90;;;21.70;41.80;;;;;;4933214;29;20079;-74
2022/04/30 12:26:55;;;;;;;8.50;2.83;;;21.90;43.10;;;;;;4934320;29;20051;-75
2022/04/30 12:29:23;;;;;;;9.25;3.10;;;21.90;43.00;;;;;;4933125;29;20035;-74
2022/04/30 12:31:51;;;;;;;11.15;2.78;;;21.90;42.70;;;;;;4934295;29;20039;-75
2022/04/30 12:34:18;;;;;;;6.80;2.60;;;22.00;43.20;;;;;;4932589;29;20024;-75
2022/04/30 12:36:58;;;;;;;6.03;2.78;;;21.90;43.50;;;;;;4933306;29;20036;-75
2022/04/30 12:39:25;;;;;;;9.20;2.90;;;22.00;44.00;;;;;;4933023;29;20035;-75
2022/04/30 12:41:52;;;;;;;6.25;2.35;;;22.00;44.50;;;;;;4933099;29;20441;-75
2022/04/30 12:44:18;;;;;;;7.10;2.60;;;22.00;44.60;;;;;;4933627;29;20034;-74
2022/04/30 12:46:45;;;;;;;7.05;2.13;;;22.00;44.90;;;;;;4934223;29;20027;-75
2022/04/30 12:49:14;;;;;;;8.88;2.60;;;22.00;45.20;;;;;;4933950;29;20028;-74
2022/04/30 12:51:40;;;;;;;;;;;22.00;45.30;;;;;;4934602;29;20401;-75
2022/04/30 12:54:09;;;;;;;6.97;2.53;;;22.10;45.40;;;;;;4933761;29;19922;-75
2022/04/30 12:56:34;;;;;;;6.10;2.80;;;22.10;46.40;;;;;;4934077;29;20032;-75
2022/04/30 12:59:00;;;;;;;8.85;2.53;;;22.10;45.80;;;;;;4933946;29;20040;-75
2022/04/30 13:01:26;;;;;;;8.63;2.80;;;22.00;45.80;;;;;;4932824;29;20046;-74
2022/04/30 13:03:51;;;;;;;10.70;2.92;;;22.10;46.80;;;;;;4933629;29;20038;-74
2022/04/30 13:06:17;;;;;;;4.80;2.33;;;22.10;46.60;;;;;;4932935;29;20127;-75
2022/04/30 13:14:12;;;;;;;4.43;2.05;;;22.10;46.80;;;;;;4933540;29;20032;-75
2022/04/30 13:16:38;;;;;;;7.10;2.50;;;22.10;47.10;;;;;;4932502;29;20031;-74
2022/04/30 13:19:04;;;;;;;7.05;2.30;;;22.10;47.10;;;;;;4932597;29;20039;-75
2022/04/30 13:21:30;;;;;;;3.72;2.25;;;22.10;47.20;;;;;;4932563;29;20032;-75
2022/04/30 13:23:56;;;;;;;6.13;2.50;;;22.10;47.50;;;;;;4933755;29;20091;-75
2022/04/30 13:26:22;;;;;;;6.30;2.20;;;22.20;47.40;;;;;;4934018;29;20031;-75
2022/04/30 13:28:48;;;;;;;5.95;2.42;;;22.20;47.40;;;;;;4932554;29;20079;-75